sensor_id;sensor_type;location;lat;lon;timestamp;temperature;humidity
68358;DHT22;55276;53.260;50.222;2022-08-25T00:01:00;22.80;37.30
68358;DHT22;55276;53.260;50.222;2022-08-25T00:03:26;22.80;37.40
68358;DHT22;55276;53.260;50.222;2022-08-25T00:05:52;22.80;37.30
68358;DHT22;55276;53.260;50.222;2022-08-25T00:08:18;22.80;37.50
68358;DHT22;55276;53.260;50.222;2022-08-25T00:10:44;22.70;37.50
68358;DHT22;55276;53.260;50.222;2022-08-25T00:13:10;22.70;37.70
68358;DHT22;55276;53.260;50.222;2022-08-25T00:15:37;22.80;37.60
68358;DHT22;55276;53.260;50.222;2022-08-25T00:18:04;22.80;37.50
68358;DHT22;55276;53.260;50.222;2022-08-25T00:20:31;22.80;37.50
68358;DHT22;55276;53.260;50.222;2022-08-25T00:22:57;22.80;37.50
68358;DHT22;55276;53.260;50.222;2022-08-25T00:25:23;22.80;37.50
68358;DHT22;55276;53.260;50.222;2022-08-25T00:27:50;22.80;37.40
68358;DHT22;55276;53.260;50.222;2022-08-25T00:30:16;22.70;37.50
68358;DHT22;55276;53.260;50.222;2022-08-25T00:32:43;22.70;37.50
68358;DHT22;55276;53.260;50.222;2022-08-25T00:35:09;22.70;37.60
68358;DHT22;55276;53.260;50.222;2022-08-25T00:37:35;22.70;37.70
68358;DHT22;55276;53.260;50.222;2022-08-25T00:40:03;22.60;37.90
68358;DHT22;55276;53.260;50.222;2022-08-25T00:42:29;22.50;38.00
68358;DHT22;55276;53.260;50.222;2022-08-25T00:44:56;22.50;38.10
68358;DHT22;55276;53.260;50.222;2022-08-25T00:47:23;22.40;38.20
68358;DHT22;55276;53.260;50.222;2022-08-25T00:49:53;22.40;38.30
68358;DHT22;55276;53.260;50.222;2022-08-25T00:52:22;22.40;38.40
68358;DHT22;55276;53.260;50.222;2022-08-25T00:54:50;22.30;38.50
68358;DHT22;55276;53.260;50.222;2022-08-25T00:57:17;22.30;38.60
68358;DHT22;55276;53.260;50.222;2022-08-25T00:59:45;22.30;38.70
68358;DHT22;55276;53.260;50.222;2022-08-25T01:02:11;22.20;38.80
68358;DHT22;55276;53.260;50.222;2022-08-25T01:04:38;22.20;38.80
68358;DHT22;55276;53.260;50.222;2022-08-25T01:07:04;22.30;38.70
68358;DHT22;55276;53.260;50.222;2022-08-25T01:09:30;22.30;38.50
68358;DHT22;55276;53.260;50.222;2022-08-25T01:12:00;22.40;38.30
68358;DHT22;55276;53.260;50.222;2022-08-25T01:14:26;22.40;38.00
68358;DHT22;55276;53.260;50.222;2022-08-25T01:16:53;22.50;37.90
68358;DHT22;55276;53.260;50.222;2022-08-25T01:19:20;22.50;37.90
68358;DHT22;55276;53.260;50.222;2022-08-25T01:21:49;22.50;37.90
68358;DHT22;55276;53.260;50.222;2022-08-25T01:25:01;22.40;38.00
68358;DHT22;55276;53.260;50.222;2022-08-25T01:27:01;22.50;38.10
68358;DHT22;55276;53.260;50.222;2022-08-25T01:29:28;22.40;38.10
68358;DHT22;55276;53.260;50.222;2022-08-25T01:31:57;22.40;38.40
68358;DHT22;55276;53.260;50.222;2022-08-25T01:34:25;22.40;38.60
68358;DHT22;55276;53.260;50.222;2022-08-25T01:36:51;22.30;38.80
68358;DHT22;55276;53.260;50.222;2022-08-25T01:39:17;22.20;38.90
68358;DHT22;55276;53.260;50.222;2022-08-25T01:44:15;22.10;39.20
68358;DHT22;55276;53.260;50.222;2022-08-25T01:46:41;22.10;39.20
68358;DHT22;55276;53.260;50.222;2022-08-25T01:49:07;22.10;39.20
68358;DHT22;55276;53.260;50.222;2022-08-25T01:51:36;22.20;39.10
68358;DHT22;55276;53.260;50.222;2022-08-25T01:54:03;22.40;39.00
68358;DHT22;55276;53.260;50.222;2022-08-25T01:56:29;22.40;38.70
68358;DHT22;55276;53.260;50.222;2022-08-25T01:58:56;22.60;38.70
68358;DHT22;55276;53.260;50.222;2022-08-25T02:01:22;22.60;38.50
68358;DHT22;55276;53.260;50.222;2022-08-25T02:03:50;22.80;38.30
68358;DHT22;55276;53.260;50.222;2022-08-25T02:06:27;22.90;38.10
68358;DHT22;55276;53.260;50.222;2022-08-25T02:08:55;23.00;37.90
68358;DHT22;55276;53.260;50.222;2022-08-25T02:11:21;23.10;37.80
68358;DHT22;55276;53.260;50.222;2022-08-25T02:13:48;23.30;37.60
68358;DHT22;55276;53.260;50.222;2022-08-25T02:16:17;23.30;37.50
68358;DHT22;55276;53.260;50.222;2022-08-25T02:18:45;23.50;37.30
68358;DHT22;55276;53.260;50.222;2022-08-25T02:21:13;23.60;37.20
68358;DHT22;55276;53.260;50.222;2022-08-25T02:23:40;23.70;37.20
68358;DHT22;55276;53.260;50.222;2022-08-25T02:26:07;23.80;37.20
68358;DHT22;55276;53.260;50.222;2022-08-25T02:28:33;23.80;37.10
68358;DHT22;55276;53.260;50.222;2022-08-25T02:30:58;23.90;37.10
68358;DHT22;55276;53.260;50.222;2022-08-25T02:33:24;23.90;37.20
68358;DHT22;55276;53.260;50.222;2022-08-25T02:35:50;23.90;37.30
68358;DHT22;55276;53.260;50.222;2022-08-25T02:38:16;23.90;37.30
68358;DHT22;55276;53.260;50.222;2022-08-25T02:40:42;23.90;37.40
68358;DHT22;55276;53.260;50.222;2022-08-25T02:43:09;23.90;37.50
68358;DHT22;55276;53.260;50.222;2022-08-25T02:45:35;23.80;37.60
68358;DHT22;55276;53.260;50.222;2022-08-25T02:48:02;23.80;37.60
68358;DHT22;55276;53.260;50.222;2022-08-25T02:50:28;23.80;37.70
68358;DHT22;55276;53.260;50.222;2022-08-25T02:52:54;23.80;37.80
68358;DHT22;55276;53.260;50.222;2022-08-25T02:55:20;23.90;38.00
68358;DHT22;55276;53.260;50.222;2022-08-25T02:57:46;23.90;38.00
68358;DHT22;55276;53.260;50.222;2022-08-25T03:00:13;23.90;38.00
68358;DHT22;55276;53.260;50.222;2022-08-25T03:02:40;23.90;38.10
68358;DHT22;55276;53.260;50.222;2022-08-25T03:05:06;23.90;38.10
68358;DHT22;55276;53.260;50.222;2022-08-25T03:07:33;23.90;38.10
68358;DHT22;55276;53.260;50.222;2022-08-25T03:09:59;23.90;38.10
68358;DHT22;55276;53.260;50.222;2022-08-25T03:12:28;23.90;38.10
68358;DHT22;55276;53.260;50.222;2022-08-25T03:14:55;24.00;38.20
68358;DHT22;55276;53.260;50.222;2022-08-25T03:19:53;24.10;38.20
68358;DHT22;55276;53.260;50.222;2022-08-25T03:22:19;24.20;38.30
68358;DHT22;55276;53.260;50.222;2022-08-25T03:24:46;24.30;38.20
68358;DHT22;55276;53.260;50.222;2022-08-25T03:27:12;24.40;38.20
68358;DHT22;55276;53.260;50.222;2022-08-25T03:29:47;24.40;38.00
68358;DHT22;55276;53.260;50.222;2022-08-25T03:32:14;24.40;37.90
68358;DHT22;55276;53.260;50.222;2022-08-25T03:34:39;24.60;38.00
68358;DHT22;55276;53.260;50.222;2022-08-25T03:37:06;24.60;37.90
68358;DHT22;55276;53.260;50.222;2022-08-25T03:39:33;24.70;37.90
68358;DHT22;55276;53.260;50.222;2022-08-25T03:41:58;24.70;37.80
68358;DHT22;55276;53.260;50.222;2022-08-25T03:44:27;24.80;38.00
68358;DHT22;55276;53.260;50.222;2022-08-25T03:46:53;24.90;37.80
68358;DHT22;55276;53.260;50.222;2022-08-25T03:49:20;24.90;37.60
68358;DHT22;55276;53.260;50.222;2022-08-25T03:51:48;25.00;37.50
68358;DHT22;55276;53.260;50.222;2022-08-25T03:54:15;25.10;37.40
68358;DHT22;55276;53.260;50.222;2022-08-25T03:56:42;25.10;37.40
68358;DHT22;55276;53.260;50.222;2022-08-25T03:59:08;25.20;37.50
68358;DHT22;55276;53.260;50.222;2022-08-25T04:01:35;25.30;37.20
68358;DHT22;55276;53.260;50.222;2022-08-25T04:04:01;25.30;37.00
68358;DHT22;55276;53.260;50.222;2022-08-25T04:06:27;25.30;37.00
68358;DHT22;55276;53.260;50.222;2022-08-25T04:08:53;25.40;37.00
68358;DHT22;55276;53.260;50.222;2022-08-25T04:11:20;25.40;37.20
68358;DHT22;55276;53.260;50.222;2022-08-25T04:13:46;25.60;37.50
68358;DHT22;55276;53.260;50.222;2022-08-25T04:16:14;25.80;37.10
68358;DHT22;55276;53.260;50.222;2022-08-25T04:18:44;25.90;36.90
68358;DHT22;55276;53.260;50.222;2022-08-25T04:21:10;26.00;36.90
68358;DHT22;55276;53.260;50.222;2022-08-25T04:23:56;26.20;36.70
68358;DHT22;55276;53.260;50.222;2022-08-25T04:26:27;26.30;36.50
68358;DHT22;55276;53.260;50.222;2022-08-25T04:28:55;26.40;36.40
68358;DHT22;55276;53.260;50.222;2022-08-25T04:31:22;26.60;36.30
68358;DHT22;55276;53.260;50.222;2022-08-25T04:33:48;26.70;36.30
68358;DHT22;55276;53.260;50.222;2022-08-25T04:36:14;26.90;35.90
68358;DHT22;55276;53.260;50.222;2022-08-25T04:38:41;26.90;35.80
68358;DHT22;55276;53.260;50.222;2022-08-25T04:41:09;27.10;35.60
68358;DHT22;55276;53.260;50.222;2022-08-25T04:43:35;27.20;35.50
68358;DHT22;55276;53.260;50.222;2022-08-25T04:46:05;27.30;35.30
68358;DHT22;55276;53.260;50.222;2022-08-25T04:48:32;27.40;35.20
68358;DHT22;55276;53.260;50.222;2022-08-25T04:51:02;27.60;35.00
68358;DHT22;55276;53.260;50.222;2022-08-25T04:53:28;27.70;34.80
68358;DHT22;55276;53.260;50.222;2022-08-25T04:55:54;27.70;34.60
68358;DHT22;55276;53.260;50.222;2022-08-25T04:58:20;27.80;34.70
68358;DHT22;55276;53.260;50.222;2022-08-25T05:00:46;27.90;34.50
68358;DHT22;55276;53.260;50.222;2022-08-25T05:03:12;28.00;34.50
68358;DHT22;55276;53.260;50.222;2022-08-25T05:05:38;28.20;34.30
68358;DHT22;55276;53.260;50.222;2022-08-25T05:08:05;28.30;34.10
68358;DHT22;55276;53.260;50.222;2022-08-25T05:10:31;28.40;34.10
68358;DHT22;55276;53.260;50.222;2022-08-25T05:12:57;28.50;34.20
68358;DHT22;55276;53.260;50.222;2022-08-25T05:15:24;28.60;34.30
68358;DHT22;55276;53.260;50.222;2022-08-25T05:18:08;28.70;34.10
68358;DHT22;55276;53.260;50.222;2022-08-25T05:20:35;28.80;34.10
68358;DHT22;55276;53.260;50.222;2022-08-25T05:23:02;28.90;34.00
68358;DHT22;55276;53.260;50.222;2022-08-25T05:25:29;29.10;33.90
68358;DHT22;55276;53.260;50.222;2022-08-25T05:27:55;29.20;33.90
68358;DHT22;55276;53.260;50.222;2022-08-25T05:30:21;29.30;33.90
68358;DHT22;55276;53.260;50.222;2022-08-25T05:32:47;29.30;33.70
68358;DHT22;55276;53.260;50.222;2022-08-25T05:35:13;29.30;33.50
68358;DHT22;55276;53.260;50.222;2022-08-25T05:37:40;29.40;33.50
68358;DHT22;55276;53.260;50.222;2022-08-25T05:40:07;29.30;33.10
68358;DHT22;55276;53.260;50.222;2022-08-25T05:42:33;29.20;33.20
68358;DHT22;55276;53.260;50.222;2022-08-25T05:45:00;29.30;33.20
68358;DHT22;55276;53.260;50.222;2022-08-25T05:47:26;29.40;33.30
68358;DHT22;55276;53.260;50.222;2022-08-25T05:49:51;29.40;33.60
68358;DHT22;55276;53.260;50.222;2022-08-25T05:52:17;29.40;34.10
68358;DHT22;55276;53.260;50.222;2022-08-25T05:54:44;29.40;34.10
68358;DHT22;55276;53.260;50.222;2022-08-25T05:57:11;29.40;33.80
68358;DHT22;55276;53.260;50.222;2022-08-25T05:59:37;29.60;33.90
68358;DHT22;55276;53.260;50.222;2022-08-25T06:02:03;29.70;33.20
68358;DHT22;55276;53.260;50.222;2022-08-25T06:04:47;29.60;33.20
68358;DHT22;55276;53.260;50.222;2022-08-25T06:07:13;29.50;33.30
68358;DHT22;55276;53.260;50.222;2022-08-25T06:09:40;29.50;33.30
68358;DHT22;55276;53.260;50.222;2022-08-25T06:12:07;29.60;33.40
68358;DHT22;55276;53.260;50.222;2022-08-25T06:14:33;29.60;33.20
68358;DHT22;55276;53.260;50.222;2022-08-25T06:16:59;29.70;33.10
68358;DHT22;55276;53.260;50.222;2022-08-25T06:19:28;29.70;32.80
68358;DHT22;55276;53.260;50.222;2022-08-25T06:21:56;29.70;32.70
68358;DHT22;55276;53.260;50.222;2022-08-25T06:24:23;29.70;33.00
68358;DHT22;55276;53.260;50.222;2022-08-25T06:26:52;29.80;32.80
68358;DHT22;55276;53.260;50.222;2022-08-25T06:29:18;29.80;32.80
68358;DHT22;55276;53.260;50.222;2022-08-25T06:31:45;29.90;32.90
68358;DHT22;55276;53.260;50.222;2022-08-25T06:34:12;29.90;32.70
68358;DHT22;55276;53.260;50.222;2022-08-25T06:36:38;29.80;32.50
68358;DHT22;55276;53.260;50.222;2022-08-25T06:39:04;29.80;32.30
68358;DHT22;55276;53.260;50.222;2022-08-25T06:41:30;29.90;32.60
68358;DHT22;55276;53.260;50.222;2022-08-25T06:43:56;29.80;32.10
68358;DHT22;55276;53.260;50.222;2022-08-25T06:46:24;29.90;32.20
68358;DHT22;55276;53.260;50.222;2022-08-25T06:48:52;29.90;31.90
68358;DHT22;55276;53.260;50.222;2022-08-25T06:51:19;29.90;32.00
68358;DHT22;55276;53.260;50.222;2022-08-25T06:53:46;30.00;32.20
68358;DHT22;55276;53.260;50.222;2022-08-25T06:56:14;30.00;32.20
68358;DHT22;55276;53.260;50.222;2022-08-25T06:58:40;30.00;32.30
68358;DHT22;55276;53.260;50.222;2022-08-25T07:01:11;30.00;32.20
68358;DHT22;55276;53.260;50.222;2022-08-25T07:03:37;30.00;31.50
68358;DHT22;55276;53.260;50.222;2022-08-25T07:06:03;29.90;31.80
68358;DHT22;55276;53.260;50.222;2022-08-25T07:08:29;29.90;31.80
68358;DHT22;55276;53.260;50.222;2022-08-25T07:10:56;30.00;31.50
68358;DHT22;55276;53.260;50.222;2022-08-25T07:13:22;30.00;31.70
68358;DHT22;55276;53.260;50.222;2022-08-25T07:15:51;30.00;31.30
68358;DHT22;55276;53.260;50.222;2022-08-25T07:18:20;30.00;31.40
68358;DHT22;55276;53.260;50.222;2022-08-25T07:20:47;30.10;31.10
68358;DHT22;55276;53.260;50.222;2022-08-25T07:23:14;30.30;31.00
68358;DHT22;55276;53.260;50.222;2022-08-25T07:25:40;30.30;30.90
68358;DHT22;55276;53.260;50.222;2022-08-25T07:28:06;30.40;30.70
68358;DHT22;55276;53.260;50.222;2022-08-25T07:30:33;30.40;29.90
68358;DHT22;55276;53.260;50.222;2022-08-25T07:32:59;30.40;29.90
68358;DHT22;55276;53.260;50.222;2022-08-25T07:35:24;30.40;30.00
68358;DHT22;55276;53.260;50.222;2022-08-25T07:37:53;30.40;29.70
68358;DHT22;55276;53.260;50.222;2022-08-25T07:40:26;30.50;29.90
68358;DHT22;55276;53.260;50.222;2022-08-25T07:42:54;30.60;29.60
68358;DHT22;55276;53.260;50.222;2022-08-25T07:45:21;30.70;29.20
68358;DHT22;55276;53.260;50.222;2022-08-25T07:47:54;30.70;29.40
68358;DHT22;55276;53.260;50.222;2022-08-25T07:50:21;30.90;29.50
68358;DHT22;55276;53.260;50.222;2022-08-25T07:52:47;30.90;29.50
68358;DHT22;55276;53.260;50.222;2022-08-25T07:55:13;30.90;29.40
68358;DHT22;55276;53.260;50.222;2022-08-25T07:57:39;30.90;29.50
68358;DHT22;55276;53.260;50.222;2022-08-25T08:00:06;30.90;29.90
68358;DHT22;55276;53.260;50.222;2022-08-25T08:02:32;30.80;29.40
68358;DHT22;55276;53.260;50.222;2022-08-25T08:04:58;30.80;29.70
68358;DHT22;55276;53.260;50.222;2022-08-25T08:07:25;30.80;29.10
68358;DHT22;55276;53.260;50.222;2022-08-25T08:09:51;30.60;28.70
68358;DHT22;55276;53.260;50.222;2022-08-25T08:12:17;30.60;29.00
68358;DHT22;55276;53.260;50.222;2022-08-25T08:14:44;30.60;29.00
68358;DHT22;55276;53.260;50.222;2022-08-25T08:17:10;30.60;29.10
68358;DHT22;55276;53.260;50.222;2022-08-25T08:19:39;30.70;29.10
68358;DHT22;55276;53.260;50.222;2022-08-25T08:22:05;30.90;29.00
68358;DHT22;55276;53.260;50.222;2022-08-25T08:24:32;30.90;29.30
68358;DHT22;55276;53.260;50.222;2022-08-25T08:27:07;30.80;29.00
68358;DHT22;55276;53.260;50.222;2022-08-25T08:29:34;30.90;29.20
68358;DHT22;55276;53.260;50.222;2022-08-25T08:32:01;30.90;29.30
68358;DHT22;55276;53.260;50.222;2022-08-25T08:34:28;30.90;29.50
68358;DHT22;55276;53.260;50.222;2022-08-25T08:36:55;30.90;29.40
68358;DHT22;55276;53.260;50.222;2022-08-25T08:39:21;31.00;29.40
68358;DHT22;55276;53.260;50.222;2022-08-25T08:50:02;31.10;29.50
68358;DHT22;55276;53.260;50.222;2022-08-25T08:55:08;31.10;29.80
68358;DHT22;55276;53.260;50.222;2022-08-25T08:57:38;31.20;29.80
68358;DHT22;55276;53.260;50.222;2022-08-25T09:00:06;31.30;29.70
68358;DHT22;55276;53.260;50.222;2022-08-25T09:02:37;31.50;29.40
68358;DHT22;55276;53.260;50.222;2022-08-25T09:05:11;31.60;29.30
68358;DHT22;55276;53.260;50.222;2022-08-25T09:07:42;31.70;29.20
68358;DHT22;55276;53.260;50.222;2022-08-25T09:10:09;31.80;29.30
68358;DHT22;55276;53.260;50.222;2022-08-25T09:25:54;32.00;29.40
68358;DHT22;55276;53.260;50.222;2022-08-25T09:28:30;32.00;29.70
68358;DHT22;55276;53.260;50.222;2022-08-25T09:31:03;32.00;29.60
68358;DHT22;55276;53.260;50.222;2022-08-25T09:33:30;31.90;29.80
68358;DHT22;55276;53.260;50.222;2022-08-25T09:35:57;31.70;30.10
68358;DHT22;55276;53.260;50.222;2022-08-25T09:38:24;31.60;30.40
68358;DHT22;55276;53.260;50.222;2022-08-25T09:40:53;31.60;30.50
68358;DHT22;55276;53.260;50.222;2022-08-25T09:43:21;31.70;30.40
68358;DHT22;55276;53.260;50.222;2022-08-25T09:45:49;31.60;30.20
68358;DHT22;55276;53.260;50.222;2022-08-25T09:48:22;31.60;30.30
68358;DHT22;55276;53.260;50.222;2022-08-25T09:50:49;31.60;30.20
68358;DHT22;55276;53.260;50.222;2022-08-25T09:53:16;31.60;30.20
68358;DHT22;55276;53.260;50.222;2022-08-25T09:55:42;31.60;30.20
68358;DHT22;55276;53.260;50.222;2022-08-25T09:58:14;31.60;30.00
68358;DHT22;55276;53.260;50.222;2022-08-25T10:00:42;31.60;30.00
68358;DHT22;55276;53.260;50.222;2022-08-25T10:03:21;31.70;30.00
68358;DHT22;55276;53.260;50.222;2022-08-25T10:10:59;31.80;29.50
68358;DHT22;55276;53.260;50.222;2022-08-25T10:13:37;31.90;29.40
68358;DHT22;55276;53.260;50.222;2022-08-25T10:16:05;31.90;29.00
68358;DHT22;55276;53.260;50.222;2022-08-25T10:18:33;31.90;29.10
68358;DHT22;55276;53.260;50.222;2022-08-25T10:21:00;31.90;29.20
68358;DHT22;55276;53.260;50.222;2022-08-25T10:23:28;31.90;29.00
68358;DHT22;55276;53.260;50.222;2022-08-25T10:25:54;32.00;28.80
68358;DHT22;55276;53.260;50.222;2022-08-25T10:28:41;32.10;28.90
68358;DHT22;55276;53.260;50.222;2022-08-25T10:38:54;32.10;28.60
68358;DHT22;55276;53.260;50.222;2022-08-25T10:44:12;32.30;28.70
68358;DHT22;55276;53.260;50.222;2022-08-25T10:49:33;32.20;28.60
68358;DHT22;55276;53.260;50.222;2022-08-25T11:02:07;32.50;28.80
68358;DHT22;55276;53.260;50.222;2022-08-25T11:09:39;33.30;27.40
68358;DHT22;55276;53.260;50.222;2022-08-25T11:12:09;33.90;27.20
68358;DHT22;55276;53.260;50.222;2022-08-25T11:14:39;35.20;25.90
68358;DHT22;55276;53.260;50.222;2022-08-25T11:17:18;37.50;23.70
68358;DHT22;55276;53.260;50.222;2022-08-25T11:19:49;40.30;21.30
68358;DHT22;55276;53.260;50.222;2022-08-25T11:23:06;42.30;19.70
68358;DHT22;55276;53.260;50.222;2022-08-25T11:25:08;43.80;19.10
68358;DHT22;55276;53.260;50.222;2022-08-25T11:30:06;46.20;17.80
68358;DHT22;55276;53.260;50.222;2022-08-25T11:32:34;47.70;17.20
68358;DHT22;55276;53.260;50.222;2022-08-25T11:35:01;48.90;16.40
68358;DHT22;55276;53.260;50.222;2022-08-25T11:37:28;49.90;16.10
68358;DHT22;55276;53.260;50.222;2022-08-25T11:42:38;51.40;15.60
68358;DHT22;55276;53.260;50.222;2022-08-25T11:50:06;53.30;14.80
68358;DHT22;55276;53.260;50.222;2022-08-25T11:55:05;53.10;14.40
68358;DHT22;55276;53.260;50.222;2022-08-25T11:57:32;52.90;14.50
68358;DHT22;55276;53.260;50.222;2022-08-25T12:00:00;53.40;14.30
68358;DHT22;55276;53.260;50.222;2022-08-25T12:02:33;53.90;14.10
68358;DHT22;55276;53.260;50.222;2022-08-25T12:05:02;54.30;14.00
68358;DHT22;55276;53.260;50.222;2022-08-25T12:07:30;54.40;14.00
68358;DHT22;55276;53.260;50.222;2022-08-25T12:10:15;54.50;13.90
68358;DHT22;55276;53.260;50.222;2022-08-25T12:15:22;55.60;13.60
68358;DHT22;55276;53.260;50.222;2022-08-25T12:21:10;54.40;13.50
68358;DHT22;55276;53.260;50.222;2022-08-25T12:26:02;53.00;13.60
68358;DHT22;55276;53.260;50.222;2022-08-25T12:30:56;53.90;13.80
68358;DHT22;55276;53.260;50.222;2022-08-25T12:33:41;54.60;13.60
68358;DHT22;55276;53.260;50.222;2022-08-25T12:36:08;53.50;13.80
68358;DHT22;55276;53.260;50.222;2022-08-25T12:38:43;49.70;15.10
68358;DHT22;55276;53.260;50.222;2022-08-25T12:41:13;46.10;16.30
68358;DHT22;55276;53.260;50.222;2022-08-25T12:43:42;43.30;17.50
68358;DHT22;55276;53.260;50.222;2022-08-25T12:53:59;37.00;21.80
68358;DHT22;55276;53.260;50.222;2022-08-25T12:56:36;36.40;22.30
68358;DHT22;55276;53.260;50.222;2022-08-25T12:59:17;35.90;23.00
68358;DHT22;55276;53.260;50.222;2022-08-25T13:12:01;34.50;24.50
68358;DHT22;55276;53.260;50.222;2022-08-25T13:14:37;34.40;24.80
68358;DHT22;55276;53.260;50.222;2022-08-25T13:17:04;34.20;25.10
68358;DHT22;55276;53.260;50.222;2022-08-25T13:19:32;34.00;25.20
68358;DHT22;55276;53.260;50.222;2022-08-25T13:21:59;33.90;25.40
68358;DHT22;55276;53.260;50.222;2022-08-25T13:26:56;33.70;25.90
68358;DHT22;55276;53.260;50.222;2022-08-25T13:29:23;33.50;25.90
68358;DHT22;55276;53.260;50.222;2022-08-25T13:34:33;33.00;26.40
68358;DHT22;55276;53.260;50.222;2022-08-25T13:37:06;32.90;26.50
68358;DHT22;55276;53.260;50.222;2022-08-25T13:40:06;32.70;26.40
68358;DHT22;55276;53.260;50.222;2022-08-25T13:42:32;32.60;26.60
68358;DHT22;55276;53.260;50.222;2022-08-25T13:44:58;32.40;26.70
68358;DHT22;55276;53.260;50.222;2022-08-25T13:47:34;32.40;26.70
68358;DHT22;55276;53.260;50.222;2022-08-25T13:50:17;32.40;26.80
68358;DHT22;55276;53.260;50.222;2022-08-25T13:52:47;32.30;26.90
68358;DHT22;55276;53.260;50.222;2022-08-25T13:55:18;32.30;27.00
68358;DHT22;55276;53.260;50.222;2022-08-25T13:57:45;32.10;27.10
68358;DHT22;55276;53.260;50.222;2022-08-25T14:00:11;32.00;27.20
68358;DHT22;55276;53.260;50.222;2022-08-25T14:05:04;31.70;27.50
68358;DHT22;55276;53.260;50.222;2022-08-25T14:07:30;31.60;27.70
68358;DHT22;55276;53.260;50.222;2022-08-25T14:09:58;31.40;27.80
68358;DHT22;55276;53.260;50.222;2022-08-25T14:12:43;31.40;27.90
68358;DHT22;55276;53.260;50.222;2022-08-25T14:17:37;31.20;28.00
68358;DHT22;55276;53.260;50.222;2022-08-25T14:20:05;31.00;28.20
68358;DHT22;55276;53.260;50.222;2022-08-25T14:22:39;30.90;28.40
68358;DHT22;55276;53.260;50.222;2022-08-25T14:25:05;30.90;28.40
68358;DHT22;55276;53.260;50.222;2022-08-25T14:27:31;30.80;28.40
68358;DHT22;55276;53.260;50.222;2022-08-25T14:29:57;30.80;28.40
68358;DHT22;55276;53.260;50.222;2022-08-25T14:32:23;30.70;28.50
68358;DHT22;55276;53.260;50.222;2022-08-25T14:34:50;30.60;28.80
68358;DHT22;55276;53.260;50.222;2022-08-25T14:37:17;30.60;28.80
68358;DHT22;55276;53.260;50.222;2022-08-25T14:39:44;30.50;28.50
68358;DHT22;55276;53.260;50.222;2022-08-25T14:42:18;30.40;28.70
68358;DHT22;55276;53.260;50.222;2022-08-25T14:44:44;30.30;29.10
68358;DHT22;55276;53.260;50.222;2022-08-25T14:47:11;30.20;29.10
68358;DHT22;55276;53.260;50.222;2022-08-25T14:49:39;30.10;29.00
68358;DHT22;55276;53.260;50.222;2022-08-25T14:52:08;30.00;28.80
68358;DHT22;55276;53.260;50.222;2022-08-25T14:54:35;30.00;28.90
68358;DHT22;55276;53.260;50.222;2022-08-25T14:57:01;29.90;29.10
68358;DHT22;55276;53.260;50.222;2022-08-25T14:59:27;29.90;28.70
68358;DHT22;55276;53.260;50.222;2022-08-25T15:02:12;29.80;28.60
68358;DHT22;55276;53.260;50.222;2022-08-25T15:04:45;29.70;28.80
68358;DHT22;55276;53.260;50.222;2022-08-25T15:07:13;29.60;28.80
68358;DHT22;55276;53.260;50.222;2022-08-25T15:09:58;29.50;28.80
68358;DHT22;55276;53.260;50.222;2022-08-25T15:12:24;29.70;28.60
68358;DHT22;55276;53.260;50.222;2022-08-25T15:14:50;30.00;28.10
68358;DHT22;55276;53.260;50.222;2022-08-25T15:17:16;29.90;28.30
68358;DHT22;55276;53.260;50.222;2022-08-25T15:19:43;29.70;28.50
68358;DHT22;55276;53.260;50.222;2022-08-25T15:22:11;29.50;28.70
68358;DHT22;55276;53.260;50.222;2022-08-25T15:24:37;29.30;28.70
68358;DHT22;55276;53.260;50.222;2022-08-25T15:27:03;29.20;29.00
68358;DHT22;55276;53.260;50.222;2022-08-25T15:29:30;29.10;29.00
68358;DHT22;55276;53.260;50.222;2022-08-25T15:31:57;28.90;29.20
68358;DHT22;55276;53.260;50.222;2022-08-25T15:34:23;28.80;29.40
68358;DHT22;55276;53.260;50.222;2022-08-25T15:36:50;28.60;29.80
68358;DHT22;55276;53.260;50.222;2022-08-25T15:39:16;28.50;29.70
68358;DHT22;55276;53.260;50.222;2022-08-25T15:41:44;28.40;29.80
68358;DHT22;55276;53.260;50.222;2022-08-25T15:44:10;28.40;30.00
68358;DHT22;55276;53.260;50.222;2022-08-25T15:46:36;28.30;30.50
68358;DHT22;55276;53.260;50.222;2022-08-25T15:49:04;28.20;30.70
68358;DHT22;55276;53.260;50.222;2022-08-25T15:51:30;28.10;31.00
68358;DHT22;55276;53.260;50.222;2022-08-25T15:53:56;28.00;31.40
68358;DHT22;55276;53.260;50.222;2022-08-25T15:56:22;27.90;31.60
68358;DHT22;55276;53.260;50.222;2022-08-25T15:58:49;27.90;31.90
68358;DHT22;55276;53.260;50.222;2022-08-25T16:01:16;27.90;32.10
68358;DHT22;55276;53.260;50.222;2022-08-25T16:03:42;27.90;32.20
68358;DHT22;55276;53.260;50.222;2022-08-25T16:06:09;27.80;32.50
68358;DHT22;55276;53.260;50.222;2022-08-25T16:08:35;27.80;32.70
68358;DHT22;55276;53.260;50.222;2022-08-25T16:11:02;27.80;32.80
68358;DHT22;55276;53.260;50.222;2022-08-25T16:13:28;27.70;32.90
68358;DHT22;55276;53.260;50.222;2022-08-25T16:15:54;27.60;33.00
68358;DHT22;55276;53.260;50.222;2022-08-25T16:18:21;27.60;33.20
68358;DHT22;55276;53.260;50.222;2022-08-25T16:20:48;27.60;33.40
68358;DHT22;55276;53.260;50.222;2022-08-25T16:23:16;27.50;33.60
68358;DHT22;55276;53.260;50.222;2022-08-25T16:25:42;27.50;33.70
68358;DHT22;55276;53.260;50.222;2022-08-25T16:28:09;27.50;33.90
68358;DHT22;55276;53.260;50.222;2022-08-25T16:30:36;27.40;34.20
68358;DHT22;55276;53.260;50.222;2022-08-25T16:33:04;27.40;34.50
68358;DHT22;55276;53.260;50.222;2022-08-25T16:35:32;27.30;34.70
68358;DHT22;55276;53.260;50.222;2022-08-25T16:37:58;27.30;34.90
68358;DHT22;55276;53.260;50.222;2022-08-25T16:40:24;27.30;35.00
68358;DHT22;55276;53.260;50.222;2022-08-25T16:42:51;27.20;35.10
68358;DHT22;55276;53.260;50.222;2022-08-25T16:45:20;27.30;35.20
68358;DHT22;55276;53.260;50.222;2022-08-25T16:47:46;27.20;35.30
68358;DHT22;55276;53.260;50.222;2022-08-25T16:50:12;27.20;36.00
68358;DHT22;55276;53.260;50.222;2022-08-25T16:52:38;27.20;36.60
68358;DHT22;55276;53.260;50.222;2022-08-25T16:55:23;27.20;36.60
68358;DHT22;55276;53.260;50.222;2022-08-25T16:57:50;27.30;36.80
68358;DHT22;55276;53.260;50.222;2022-08-25T17:00:22;27.20;36.70
68358;DHT22;55276;53.260;50.222;2022-08-25T17:02:48;27.10;36.80
68358;DHT22;55276;53.260;50.222;2022-08-25T17:05:16;27.10;37.10
68358;DHT22;55276;53.260;50.222;2022-08-25T17:07:43;27.10;37.30
68358;DHT22;55276;53.260;50.222;2022-08-25T17:10:29;27.00;37.50
68358;DHT22;55276;53.260;50.222;2022-08-25T17:12:54;27.00;37.80
68358;DHT22;55276;53.260;50.222;2022-08-25T17:15:21;27.00;37.70